createdAt,value
2019-05-03T00:02:02.171Z,73.00
2019-05-03T00:04:31.582Z,71.57
2019-05-03T00:06:59.820Z,73.12
2019-05-03T00:09:28.157Z,65.85
2019-05-03T00:11:56.275Z,66.36
2019-05-03T00:14:24.509Z,72.96
2019-05-03T00:16:52.671Z,73.06
2019-05-03T00:19:21.923Z,68.21
2019-05-03T00:21:52.468Z,71.75
2019-05-03T00:24:20.225Z,68.21
2019-05-03T00:26:48.387Z,71.25
2019-05-03T00:29:16.569Z,71.73
2019-05-03T00:31:44.865Z,73.27
2019-05-03T00:34:16.275Z,73.90
2019-05-03T00:36:48.532Z,73.82
2019-05-03T00:39:35.665Z,72.52
2019-05-03T00:42:03.881Z,69.29
2019-05-03T00:44:31.999Z,66.42
2019-05-03T00:47:02.117Z,70.74
2019-05-03T00:49:31.931Z,69.52
2019-05-03T00:52:02.206Z,69.62
2019-05-03T00:54:31.683Z,69.79
2019-05-03T00:57:00.020Z,69.92
2019-05-03T00:59:28.225Z,70.33
2019-05-03T01:01:56.389Z,71.87
2019-05-03T01:04:24.572Z,70.74
2019-05-03T01:06:52.786Z,65.76
2019-05-03T01:09:23.479Z,64.12
2019-05-03T01:11:52.482Z,63.14
2019-05-03T01:14:22.587Z,61.96
2019-05-03T01:16:52.166Z,68.06
2019-05-03T01:19:22.589Z,65.64
2019-05-03T01:21:51.532Z,68.27
2019-05-03T01:24:21.626Z,65.07
2019-05-03T01:26:49.704Z,66.60
2019-05-03T01:29:17.842Z,71.60
2019-05-03T01:31:45.974Z,71.15
2019-05-03T01:34:14.092Z,67.17
2019-05-03T01:36:42.737Z,68.29
2019-05-03T01:39:12.639Z,64.52
2019-05-03T01:41:41.693Z,62.39
2019-05-03T01:44:09.912Z,69.02
2019-05-03T01:46:38.110Z,67.47
2019-05-03T01:49:18.732Z,63.83
2019-05-03T01:52:02.208Z,69.78
2019-05-03T01:54:32.148Z,69.54
2019-05-03T01:57:02.256Z,71.95
2019-05-03T01:59:32.070Z,72.45
2019-05-03T02:02:19.270Z,72.37
2019-05-03T02:04:53.353Z,70.14
2019-05-03T02:07:22.335Z,71.93
2019-05-03T02:09:52.017Z,70.70
2019-05-03T02:12:22.195Z,66.35
2019-05-03T02:14:51.672Z,71.33
2019-05-03T02:17:39.308Z,70.23
2019-05-03T02:20:07.472Z,66.32
2019-05-03T02:22:35.707Z,66.23
2019-05-03T02:25:04.006Z,66.12
2019-05-03T02:27:32.562Z,66.40
2019-05-03T02:30:03.227Z,63.86
2019-05-03T02:32:33.088Z,63.68
2019-05-03T02:35:02.827Z,63.71
2019-05-03T02:37:32.884Z,63.54
2019-05-03T02:40:03.884Z,61.88
2019-05-03T02:42:30.397Z,66.26
2019-05-03T02:44:59.492Z,66.08
2019-05-03T02:47:55.151Z,63.76
2019-05-03T02:50:25.804Z,64.51
2019-05-03T02:52:55.074Z,65.82
2019-05-03T02:55:22.400Z,65.60
2019-05-03T02:57:50.579Z,63.12
2019-05-03T03:00:21.856Z,64.78
2019-05-03T03:03:16.580Z,64.77
2019-05-03T03:05:46.395Z,65.43
2019-05-03T03:08:16.352Z,65.47
2019-05-03T03:10:45.658Z,66.49
2019-05-03T03:13:16.333Z,65.50
2019-05-03T03:18:59.077Z,66.39
2019-05-03T03:21:36.019Z,65.03
2019-05-03T03:24:10.112Z,64.76
2019-05-03T03:26:43.116Z,65.76
2019-05-03T03:29:11.216Z,63.00
2019-05-03T03:32:19.440Z,63.55
2019-05-03T03:35:38.910Z,62.71
2019-05-03T03:38:08.444Z,65.28
2019-05-03T03:40:38.092Z,66.95
2019-05-03T03:43:07.558Z,66.83
2019-05-03T03:45:37.269Z,66.21
2019-05-03T03:48:05.806Z,65.18
2019-05-03T03:50:36.207Z,63.34
2019-05-03T03:53:07.928Z,64.88
2019-05-03T03:56:16.079Z,65.30
2019-05-03T03:58:46.406Z,63.40
2019-05-03T04:01:15.656Z,67.51
2019-05-03T04:03:45.950Z,67.83
2019-05-03T04:06:15.417Z,67.44
2019-05-03T04:08:45.350Z,64.49
2019-05-03T04:11:15.570Z,62.65
2019-05-03T04:13:45.328Z,66.78
2019-05-03T04:16:29.926Z,63.37
2019-05-03T04:21:59.364Z,67.30
2019-05-03T04:24:48.293Z,65.72
2019-05-03T04:27:23.304Z,67.02
2019-05-03T04:29:48.146Z,66.58
2019-05-03T04:32:16.349Z,67.96
2019-05-03T04:34:45.299Z,67.03
2019-05-03T04:37:16.218Z,66.21
2019-05-03T04:39:45.670Z,66.17
2019-05-03T04:42:16.683Z,64.33
2019-05-03T04:44:45.686Z,62.19
2019-05-03T04:47:15.672Z,63.54
2019-05-03T04:49:45.974Z,60.29
2019-05-03T04:52:16.205Z,61.90
2019-05-03T04:54:51.221Z,65.49
2019-05-03T04:57:35.173Z,63.41
2019-05-03T04:59:49.293Z,64.34
2019-05-03T05:02:17.492Z,64.48
2019-05-03T05:04:46.262Z,61.91
2019-05-03T05:07:15.832Z,62.54
2019-05-03T05:09:45.808Z,62.08
2019-05-03T05:12:16.188Z,62.52
2019-05-03T05:14:45.769Z,62.65
2019-05-03T05:17:16.307Z,61.86
2019-05-03T05:22:40.537Z,60.37
2019-05-03T05:28:10.213Z,62.95
2019-05-03T05:30:38.395Z,62.69
2019-05-03T05:35:44.303Z,61.91
2019-05-03T05:38:12.220Z,61.23
2019-05-03T05:40:40.395Z,62.37
2019-05-03T05:43:08.507Z,61.82
2019-05-03T05:45:36.693Z,61.11
2019-05-03T05:48:08.715Z,61.15
2019-05-03T05:50:39.335Z,61.99
2019-05-03T05:53:07.429Z,61.35
2019-05-03T05:55:55.043Z,60.74
2019-05-03T05:58:46.562Z,61.01
2019-05-03T06:01:35.350Z,61.07
2019-05-03T06:04:05.252Z,60.58
2019-05-03T06:07:01.355Z,58.50
2019-05-03T06:09:48.439Z,60.30
2019-05-03T06:12:22.141Z,57.42
2019-05-03T06:14:54.721Z,56.98
2019-05-03T06:17:45.124Z,55.38
2019-05-03T06:20:32.585Z,58.06
2019-05-03T06:23:10.902Z,54.13
2019-05-03T06:25:41.348Z,56.12
2019-05-03T06:28:25.215Z,58.10
2019-05-03T06:31:10.933Z,58.98
2019-05-03T06:33:39.055Z,58.08
2019-05-03T06:36:07.312Z,56.35
2019-05-03T06:38:35.467Z,56.92
2019-05-03T06:41:04.734Z,57.63
2019-05-03T06:43:34.811Z,56.47
2019-05-03T06:46:05.199Z,55.13
2019-05-03T06:48:32.937Z,58.62
2019-05-03T06:51:08.694Z,57.62
2019-05-03T06:53:31.032Z,55.03
2019-05-03T06:55:59.125Z,57.61
2019-05-03T06:58:33.163Z,54.73
2019-05-03T07:01:25.147Z,55.40
2019-05-03T07:04:08.597Z,55.08
2019-05-03T07:06:57.814Z,54.55
2019-05-03T07:09:44.840Z,53.38
2019-05-03T07:12:14.823Z,54.55
2019-05-03T07:14:44.871Z,54.55
2019-05-03T07:17:14.525Z,50.29
2019-05-03T07:19:42.940Z,49.38
2019-05-03T07:22:11.152Z,51.11
2019-05-03T07:24:40.924Z,54.43
2019-05-03T07:27:09.525Z,54.40
2019-05-03T07:29:37.787Z,51.87
2019-05-03T07:32:05.911Z,53.34
2019-05-03T07:34:35.150Z,49.92
2019-05-03T07:37:03.375Z,49.47
2019-05-03T07:39:32.164Z,51.58
2019-05-03T07:42:00.410Z,52.91
2019-05-03T07:44:28.820Z,49.42
2019-05-03T07:46:56.935Z,47.21
2019-05-03T07:49:25.172Z,50.08
2019-05-03T07:51:55.288Z,55.26
2019-05-03T07:54:24.825Z,52.11
2019-05-03T07:56:58.466Z,47.84
2019-05-03T07:59:26.671Z,53.27
2019-05-03T08:01:56.984Z,49.01
2019-05-03T08:04:25.535Z,54.49
2019-05-03T08:06:54.955Z,52.61
2019-05-03T08:09:24.578Z,53.73
2019-05-03T08:11:54.705Z,46.80
2019-05-03T08:14:22.858Z,49.16
2019-05-03T08:16:51.044Z,53.83
2019-05-03T08:19:19.261Z,54.67
2019-05-03T08:21:47.497Z,51.47
2019-05-03T08:24:15.655Z,51.17
2019-05-03T08:26:45.324Z,52.45
2019-05-03T08:29:19.004Z,51.42
2019-05-03T08:32:10.313Z,53.69
2019-05-03T08:35:00.588Z,50.66
2019-05-03T08:37:39.556Z,51.86
2019-05-03T08:40:08.027Z,51.18
2019-05-03T08:42:36.195Z,51.29
2019-05-03T08:45:04.580Z,50.24
2019-05-03T08:47:34.527Z,50.03
2019-05-03T08:50:02.743Z,49.50
2019-05-03T08:52:31.185Z,49.91
2019-05-03T08:54:59.564Z,50.77
2019-05-03T08:57:27.803Z,46.24
2019-05-03T08:59:56.072Z,49.90
2019-05-03T09:02:25.839Z,50.15
2019-05-03T09:04:54.684Z,48.08
2019-05-03T09:07:25.131Z,52.19
2019-05-03T09:10:17.558Z,48.55
2019-05-03T09:13:04.116Z,43.97
2019-05-03T09:15:34.982Z,44.30
2019-05-03T09:18:04.806Z,47.90
2019-05-03T09:20:32.721Z,47.08
2019-05-03T09:23:01.031Z,44.45
2019-05-03T09:25:29.270Z,45.25
2019-05-03T09:27:57.570Z,52.63
2019-05-03T09:30:25.999Z,45.54
2019-05-03T09:32:55.680Z,47.88
2019-05-03T09:35:32.096Z,48.94
2019-05-03T09:37:55.536Z,43.65
2019-05-03T09:40:24.559Z,43.23
2019-05-03T09:42:54.628Z,42.96
2019-05-03T09:45:24.603Z,44.37
2019-05-03T09:47:55.038Z,45.15
2019-05-03T09:50:24.579Z,50.43
2019-05-03T09:52:55.238Z,48.57
2019-05-03T09:55:35.920Z,41.12
2019-05-03T09:58:05.513Z,42.48
2019-05-03T10:00:33.988Z,44.11
2019-05-03T10:03:02.160Z,49.95
2019-05-03T10:05:30.336Z,51.84
2019-05-03T10:07:58.509Z,49.81
2019-05-03T10:10:26.649Z,48.44
2019-05-03T10:12:55.094Z,40.93
2019-05-03T10:15:56.809Z,51.40
2019-05-03T10:18:25.428Z,43.87
2019-05-03T10:20:56.170Z,42.89
2019-05-03T10:23:40.144Z,46.57
2019-05-03T10:26:08.852Z,42.37
2019-05-03T10:28:37.133Z,45.55
2019-05-03T10:31:07.748Z,47.53
2019-05-03T10:33:48.504Z,38.80
2019-05-03T10:36:16.635Z,39.44
2019-05-03T10:38:46.051Z,41.92
2019-05-03T10:41:14.516Z,40.99
2019-05-03T10:43:44.930Z,47.98
2019-05-03T10:46:12.595Z,44.65
2019-05-03T10:48:40.753Z,41.42
2019-05-03T10:51:08.868Z,37.60
2019-05-03T10:53:40.587Z,39.59
2019-05-03T10:59:16.952Z,41.89
2019-05-03T11:02:04.153Z,41.65
2019-05-03T11:04:35.611Z,50.27
2019-05-03T11:07:05.461Z,48.67
2019-05-03T11:09:47.969Z,37.82
2019-05-03T11:12:05.340Z,44.32
2019-05-03T11:14:35.093Z,41.96
2019-05-03T11:17:05.503Z,39.88
2019-05-03T11:19:34.725Z,33.67
2019-05-03T11:22:03.004Z,39.26
2019-05-03T11:24:31.318Z,39.40
2019-05-03T11:27:01.272Z,38.38
2019-05-03T11:29:29.534Z,45.99
2019-05-03T11:32:16.415Z,39.67
2019-05-03T11:35:07.147Z,40.26
2019-05-03T11:37:42.922Z,42.74
2019-05-03T11:40:15.729Z,38.93
2019-05-03T11:42:44.781Z,38.46
2019-05-03T11:45:15.179Z,40.41
2019-05-03T11:47:45.438Z,44.92
2019-05-03T11:50:14.827Z,45.83
2019-05-03T11:52:42.917Z,38.73
2019-05-03T11:55:12.116Z,39.61
2019-05-03T11:57:40.572Z,45.86
2019-05-03T12:00:10.634Z,45.66
2019-05-03T12:02:55.940Z,43.12
2019-05-03T12:05:28.206Z,42.94
2019-05-03T12:07:56.394Z,38.29
2019-05-03T12:10:36.554Z,36.10
2019-05-03T12:12:59.842Z,42.01
2019-05-03T12:15:28.325Z,41.26
2019-05-03T12:17:59.746Z,38.89
2019-05-03T12:20:29.966Z,37.60
2019-05-03T12:22:58.586Z,39.83
2019-05-03T12:25:27.913Z,34.27
2019-05-03T12:27:56.422Z,44.13
2019-05-03T12:30:27.453Z,36.72
2019-05-03T12:32:54.815Z,34.20
2019-05-03T12:35:24.675Z,35.83
2019-05-03T12:37:55.088Z,36.92
2019-05-03T12:40:22.839Z,34.43
2019-05-03T12:42:51.791Z,34.55
2019-05-03T12:45:20.004Z,33.20
2019-05-03T12:47:48.155Z,33.89
2019-05-03T12:50:16.737Z,35.47
2019-05-03T12:52:50.339Z,34.05
2019-05-03T12:55:15.366Z,34.17
2019-05-03T12:57:45.668Z,36.46
2019-05-03T13:00:48.417Z,35.05
2019-05-03T13:03:19.524Z,37.16
2019-05-03T13:05:47.786Z,35.87
2019-05-03T13:08:37.522Z,38.31
2019-05-03T13:11:06.498Z,34.49
2019-05-03T13:13:35.941Z,32.77
2019-05-03T13:16:04.685Z,34.31
2019-05-03T13:18:35.066Z,37.34
2019-05-03T13:21:05.387Z,34.20
2019-05-03T13:23:35.310Z,39.12
2019-05-03T13:26:05.233Z,37.56
2019-05-03T13:28:32.836Z,36.02
2019-05-03T13:31:00.957Z,41.74
2019-05-03T13:33:29.163Z,37.82
2019-05-03T13:35:57.329Z,40.18
2019-05-03T13:38:25.522Z,36.12
2019-05-03T13:40:54.336Z,38.60
2019-05-03T13:43:22.635Z,38.95
2019-05-03T13:45:50.853Z,36.92
2019-05-03T13:48:20.896Z,35.78
2019-05-03T13:50:48.982Z,37.77
2019-05-03T13:53:17.281Z,39.76
2019-05-03T13:55:45.485Z,35.94
2019-05-03T13:58:14.747Z,37.82
2019-05-03T14:00:45.136Z,37.92
2019-05-03T14:03:15.052Z,36.06
2019-05-03T14:05:44.594Z,36.07
2019-05-03T14:08:15.417Z,36.97
2019-05-03T14:10:45.224Z,34.51
2019-05-03T14:13:12.972Z,39.25
2019-05-03T14:15:41.338Z,35.44
2019-05-03T14:18:09.671Z,34.77
2019-05-03T14:20:56.734Z,34.61
2019-05-03T14:23:25.339Z,34.40
2019-05-03T14:25:55.254Z,35.54
2019-05-03T14:28:25.210Z,35.60
2019-05-03T14:30:54.813Z,34.00
2019-05-03T14:33:24.862Z,36.19
2019-05-03T14:35:54.696Z,35.40
2019-05-03T14:38:25.295Z,34.24
2019-05-03T14:40:55.109Z,37.20
2019-05-03T14:43:24.715Z,33.27
2019-05-03T14:45:54.826Z,34.82
2019-05-03T14:48:24.888Z,36.89
2019-05-03T14:50:54.971Z,32.15
2019-05-03T14:53:22.727Z,34.47
2019-05-03T14:56:05.057Z,36.39
2019-05-03T14:58:56.094Z,35.92
2019-05-03T15:01:31.460Z,32.42
2019-05-03T15:03:59.616Z,33.92
2019-05-03T15:06:27.870Z,34.60
2019-05-03T15:08:56.100Z,32.94
2019-05-03T15:11:24.256Z,32.41
2019-05-03T15:13:52.387Z,33.21
2019-05-03T15:16:20.592Z,36.61
2019-05-03T15:18:48.763Z,32.27
2019-05-03T15:21:16.966Z,36.51
2019-05-03T15:23:45.392Z,33.72
2019-05-03T15:26:13.610Z,34.39
2019-05-03T15:28:41.920Z,32.82
2019-05-03T15:31:10.124Z,42.50
2019-05-03T15:33:38.407Z,39.90
2019-05-03T15:36:06.549Z,35.48
2019-05-03T15:38:34.852Z,40.42
2019-05-03T15:41:05.413Z,36.62
2019-05-03T15:43:46.516Z,40.03
2019-05-03T15:46:31.057Z,34.08
2019-05-03T15:49:00.560Z,33.54
2019-05-03T15:51:29.030Z,35.20
2019-05-03T15:53:57.329Z,35.08
2019-05-03T15:56:25.617Z,34.35
2019-05-03T15:58:55.181Z,36.57
2019-05-03T16:01:24.903Z,34.49
2019-05-03T16:03:53.189Z,38.24
2019-05-03T16:06:21.372Z,33.72
2019-05-03T16:08:49.484Z,31.49
2019-05-03T16:11:17.656Z,36.06
2019-05-03T16:13:46.125Z,39.90
2019-05-03T16:16:15.142Z,40.82
2019-05-03T16:18:44.884Z,37.54
2019-05-03T16:21:14.665Z,37.78
2019-05-03T16:23:46.306Z,34.14
2019-05-03T16:26:14.331Z,39.56
2019-05-03T16:28:50.607Z,36.67
2019-05-03T16:31:20.998Z,40.45
2019-05-03T16:33:48.273Z,39.15
2019-05-03T16:36:16.628Z,39.61
2019-05-03T16:38:45.087Z,36.34
2019-05-03T16:41:17.491Z,41.23
2019-05-03T16:43:45.379Z,39.07
2019-05-03T16:46:14.551Z,40.29
2019-05-03T16:48:44.732Z,39.21
2019-05-03T16:51:15.208Z,39.06
2019-05-03T16:53:44.505Z,39.41
2019-05-03T16:56:16.771Z,41.33
2019-05-03T16:58:44.475Z,39.17
2019-05-03T17:01:15.944Z,41.34
2019-05-03T17:03:50.638Z,38.63
2019-05-03T17:06:34.846Z,41.79
2019-05-03T17:09:21.929Z,40.57
2019-05-03T17:12:11.176Z,40.94
2019-05-03T17:14:39.405Z,41.30
2019-05-03T17:17:07.778Z,42.17
2019-05-03T17:19:35.949Z,41.97
2019-05-03T17:22:05.595Z,39.67
2019-05-03T17:24:35.334Z,40.71
2019-05-03T17:27:03.683Z,41.86
2019-05-03T17:29:32.308Z,42.28
2019-05-03T17:32:00.456Z,43.25
2019-05-03T17:34:28.684Z,42.57
2019-05-03T17:36:56.934Z,43.99
2019-05-03T17:39:42.983Z,41.17
2019-05-03T17:42:21.717Z,40.61
2019-05-03T17:44:50.855Z,42.09
2019-05-03T17:47:19.002Z,40.93
2019-05-03T17:49:47.200Z,41.29
2019-05-03T17:52:34.461Z,41.61
2019-05-03T17:55:35.207Z,42.09
2019-05-03T17:58:24.279Z,43.22
2019-05-03T18:01:08.341Z,41.55
2019-05-03T18:03:39.031Z,41.37
2019-05-03T18:06:17.055Z,40.82
2019-05-03T18:09:06.840Z,41.66
2019-05-03T18:11:46.355Z,43.35
2019-05-03T18:14:14.951Z,44.26
2019-05-03T18:16:44.310Z,43.26
2019-05-03T18:19:12.620Z,42.78
2019-05-03T18:21:40.999Z,43.53
2019-05-03T18:24:09.275Z,43.61
2019-05-03T18:26:37.577Z,41.92
2019-05-03T18:29:05.909Z,42.37
2019-05-03T18:31:34.148Z,43.79
2019-05-03T18:34:02.506Z,44.12
2019-05-03T18:36:32.327Z,44.03
2019-05-03T18:39:00.550Z,44.10
2019-05-03T18:41:28.970Z,42.88
2019-05-03T18:44:07.119Z,43.79
2019-05-03T18:46:39.657Z,41.13
2019-05-03T18:49:07.781Z,43.56
2019-05-03T18:51:35.944Z,43.23
2019-05-03T18:54:07.097Z,43.75
2019-05-03T18:56:34.712Z,42.65
2019-05-03T18:59:04.968Z,43.03
2019-05-03T19:01:34.698Z,42.46
2019-05-03T19:04:31.083Z,43.78
2019-05-03T19:07:01.302Z,43.37
2019-05-03T19:09:37.346Z,44.84
2019-05-03T19:12:35.691Z,42.97
2019-05-03T19:15:05.298Z,42.05
2019-05-03T19:18:01.756Z,44.15
2019-05-03T19:20:30.492Z,44.87
2019-05-03T19:22:58.677Z,44.66
2019-05-03T19:25:26.872Z,46.42
2019-05-03T19:27:55.017Z,44.53
2019-05-03T19:30:24.487Z,46.50
2019-05-03T19:32:52.748Z,46.04
2019-05-03T19:35:20.910Z,47.50
2019-05-03T19:37:49.087Z,43.85
2019-05-03T19:40:18.822Z,43.19
2019-05-03T19:42:47.112Z,45.40
2019-05-03T19:45:15.360Z,46.03
2019-05-03T19:47:44.733Z,46.98
2019-05-03T19:50:13.241Z,45.41
2019-05-03T19:53:14.364Z,44.43
2019-05-03T19:55:42.202Z,44.69
2019-05-03T19:58:10.420Z,47.50
2019-05-03T20:00:57.664Z,47.13
2019-05-03T20:03:35.240Z,46.86
2019-05-03T20:06:14.491Z,49.06
2019-05-03T20:08:46.749Z,48.12
2019-05-03T20:11:15.736Z,48.91
2019-05-03T20:13:45.157Z,47.46
2019-05-03T20:16:15.457Z,46.32
2019-05-03T20:18:45.404Z,47.04
2019-05-03T20:21:14.996Z,50.00
2019-05-03T20:23:44.722Z,47.45
2019-05-03T20:26:14.903Z,51.42
2019-05-03T20:28:44.840Z,50.75
2019-05-03T20:31:13.497Z,51.37
2019-05-03T20:33:41.751Z,51.28
2019-05-03T20:36:09.965Z,51.82
2019-05-03T20:38:38.180Z,51.67
2019-05-03T20:41:06.322Z,52.29
2019-05-03T20:43:54.931Z,48.29
2019-05-03T20:46:42.136Z,49.76
2019-05-03T20:49:11.538Z,49.18
2019-05-03T20:51:39.803Z,47.70
2019-05-03T20:54:08.138Z,51.10
2019-05-03T20:56:36.346Z,50.90
2019-05-03T20:59:05.429Z,46.40
2019-05-03T21:01:34.772Z,51.71
2019-05-03T21:04:04.703Z,51.18
2019-05-03T21:06:35.769Z,51.29
2019-05-03T21:09:04.689Z,52.50
2019-05-03T21:11:33.217Z,51.94
2019-05-03T21:14:01.350Z,50.82
2019-05-03T21:16:38.795Z,53.50
2019-05-03T21:19:20.423Z,54.90
2019-05-03T21:21:52.113Z,52.14
2019-05-03T21:24:26.361Z,55.61
2019-05-03T21:27:05.042Z,56.61
2019-05-03T21:32:10.339Z,55.37
2019-05-03T21:34:38.532Z,54.81
2019-05-03T21:37:06.853Z,49.83
2019-05-03T21:39:35.143Z,47.72
2019-05-03T21:42:04.740Z,53.73
2019-05-03T21:44:34.261Z,55.86
2019-05-03T21:47:20.681Z,56.02
2019-05-03T21:49:48.981Z,52.37
2019-05-03T21:52:17.223Z,54.16
2019-05-03T21:54:45.385Z,54.81
2019-05-03T21:57:14.248Z,52.93
2019-05-03T21:59:44.806Z,57.31
2019-05-03T22:02:15.283Z,59.45
2019-05-03T22:04:44.427Z,59.62
2019-05-03T22:07:12.763Z,54.40
2019-05-03T22:09:41.027Z,60.46
2019-05-03T22:12:09.200Z,59.78
2019-05-03T22:14:45.382Z,59.68
2019-05-03T22:17:32.207Z,53.38
2019-05-03T22:20:07.695Z,61.58
2019-05-03T22:22:45.247Z,61.59
2019-05-03T22:25:15.066Z,62.86
2019-05-03T22:27:45.479Z,62.36
2019-05-03T22:30:14.025Z,57.79
2019-05-03T22:32:44.406Z,58.18
2019-05-03T22:35:12.155Z,62.55
2019-05-03T22:37:40.376Z,63.54
2019-05-03T22:40:08.784Z,63.74
2019-05-03T22:42:37.006Z,58.27
2019-05-03T22:45:05.491Z,58.45
2019-05-03T22:47:35.614Z,63.26
2019-05-03T22:50:05.422Z,58.44
2019-05-03T22:52:35.062Z,62.16
2019-05-03T22:55:04.713Z,55.00
2019-05-03T22:57:34.873Z,65.35
2019-05-03T23:00:06.059Z,66.20
2019-05-03T23:02:32.724Z,66.36
2019-05-03T23:05:00.863Z,64.25
2019-05-03T23:07:29.000Z,66.76
2019-05-03T23:09:57.155Z,67.33
2019-05-03T23:12:25.279Z,66.01
2019-05-03T23:14:55.088Z,64.21
2019-05-03T23:17:25.015Z,62.02
2019-05-03T23:19:57.590Z,66.31
2019-05-03T23:22:29.057Z,65.55
2019-05-03T23:24:57.196Z,66.02
2019-05-03T23:27:25.314Z,65.43
2019-05-03T23:29:54.518Z,65.10
2019-05-03T23:32:24.505Z,65.09
2019-05-03T23:34:54.457Z,68.70
2019-05-03T23:37:22.614Z,67.27
2019-05-03T23:39:50.783Z,62.10
2019-05-03T23:42:18.902Z,62.20
2019-05-03T23:44:47.070Z,65.66
2019-05-03T23:47:42.198Z,66.68
2019-05-03T23:50:13.588Z,66.44
2019-05-03T23:52:41.720Z,66.21
2019-05-03T23:55:22.223Z,61.67
2019-05-03T23:57:50.300Z,67.40
